This is the latest recevied weather packets stored in our database for station/object YREN. If no packets are shown the sender has not sent any weather packets the latest 10 day(s).
| Time | Temp. | Humidity | Pressure | Rain* | Wind** | Luminosity | Snow |
|---|---|---|---|---|---|---|---|
| 1788543304 | 15.56° C | 75% | 1009.6 hPa | 0 mm | - | - | - |
| 1788542404 | 14.44° C | 78% | 1009 hPa | 0 mm | - | - | - |
| 1788541504 | 14.44° C | 78% | 1009 hPa | 0 mm | - | - | - |
| 1788540604 | 14.44° C | 78% | 1008.8 hPa | 0 mm | - | - | - |
| 1788539703 | 14.44° C | 78% | 1008.8 hPa | 0 mm | - | - | - |
| 1788538804 | 13.89° C | 80% | 1008.5 hPa | 0 mm | - | - | - |
| 1788537904 | 13.89° C | 80% | 1008.5 hPa | 0 mm | - | - | - |
| 1788537004 | 13.89° C | 79% | 1008.8 hPa | 0 mm | - | - | - |
| 1788536104 | 13.89° C | 79% | 1008.8 hPa | 0 mm | - | - | - |
| 1788535221 | 15° C | 74% | 1008.5 hPa | 0 mm | - | - | - |
| 1788534304 | 15° C | 74% | 1008.5 hPa | 0 mm | - | - | - |
| 1788533403 | 15° C | 75% | 1008.6 hPa | 0 mm | - | - | - |
| 1788532504 | 15.56° C | 70% | 1009.5 hPa | 0 mm | - | - | - |
| 1788531604 | 15.56° C | 70% | 1009.5 hPa | 0 mm | - | - | - |
| 1788530704 | 15.56° C | 70% | 1009.5 hPa | 0 mm | - | - | - |
| 1788529804 | 16.67° C | 67% | 1009.9 hPa | 0 mm | - | - | - |
| 1788528904 | 16.67° C | 67% | 1009.9 hPa | 0 mm | - | - | - |
| 1788528004 | 16.67° C | 67% | 1010.4 hPa | 0 mm | - | - | - |
| 1788527104 | 16.67° C | 67% | 1010.4 hPa | 0 mm | - | - | - |
| 1788526204 | 16.67° C | 66% | 1010.7 hPa | 0 mm | - | - | - |
| 1788525304 | 16.67° C | 66% | 1010.7 hPa | 0 mm | - | - | - |
| 1788524404 | 17.22° C | 63% | 1011.2 hPa | 0 mm | - | - | - |
| 1788523504 | 17.22° C | 63% | 1011.2 hPa | 0 mm | - | - | - |
| 1788522604 | 17.22° C | 64% | 1011.3 hPa | 0 mm | - | - | - |
| 1788521704 | 17.22° C | 64% | 1011.3 hPa | 0 mm | - | - | - |
* Rain latest hour (hover to see other rain measurements)
** Current wind speed in m/s (hover to see current wind gust speed)